Time;durP1;ratioP1;P1;durP2;ratioP2;P2;SDS_P1;SDS_P2;PMS_P1;PMS_P2;Temp;Humidity;BMP_temperature;BMP_pressure;BME280_temperature;BME280_humidity;BME280_pressure;Samples;Min_cycle;Max_cycle;Signal;HPM_P1;HPM_P2
2022/08/04 00:02:09;;;;;;;2.50;1.60;;;16.00;53.10;;;;;;5081654;28;20264;-37
2022/08/04 00:04:46;;;;;;;4.47;2.05;;;16.00;53.10;;;;;;5073166;28;20744;-42
2022/08/04 00:07:25;;;;;;;3.50;2.00;;;16.00;53.10;;;;;;5073043;28;20186;-43
2022/08/04 00:10:02;;;;;;;3.67;2.05;;;16.00;53.00;;;;;;5073957;28;20191;-37
2022/08/04 00:12:34;;;;;;;2.80;1.50;;;16.10;53.10;;;;;;5053523;28;20691;-37
2022/08/04 00:15:12;;;;;;;3.35;1.60;;;16.10;53.00;;;;;;5052711;28;20226;-37
2022/08/04 00:17:46;;;;;;;3.25;1.65;;;16.10;53.10;;;;;;5052879;28;20204;-43
2022/08/04 00:20:21;;;;;;;3.47;1.55;;;16.10;53.10;;;;;;5054444;28;20204;-40
2022/08/04 00:22:53;;;;;;;2.78;1.40;;;16.10;53.00;;;;;;5072130;28;20201;-36
2022/08/04 00:25:24;;;;;;;3.80;1.90;;;16.20;53.10;;;;;;5072740;28;20215;-36
2022/08/04 00:27:55;;;;;;;3.35;1.70;;;16.20;53.10;;;;;;5072649;28;20650;-36
2022/08/04 00:30:28;;;;;;;3.22;1.95;;;16.20;53.10;;;;;;5066086;28;20199;-37
2022/08/04 00:33:00;;;;;;;3.78;1.35;;;16.20;53.10;;;;;;5072480;28;20230;-44
2022/08/04 00:35:31;;;;;;;3.15;1.67;;;16.20;53.10;;;;;;5071037;28;20325;-38
2022/08/04 00:38:03;;;;;;;2.15;1.25;;;16.30;53.10;;;;;;5072149;28;20206;-41
2022/08/04 00:40:43;;;;;;;2.63;1.17;;;16.30;53.10;;;;;;5071977;28;20191;-42
2022/08/04 00:43:21;;;;;;;2.72;1.40;;;16.30;53.00;;;;;;5072717;28;20198;-41
2022/08/04 00:46:10;;;;;;;3.13;1.55;;;16.30;53.00;;;;;;5071731;28;20607;-38
2022/08/04 00:48:58;;;;;;;2.75;1.50;;;16.30;53.00;;;;;;5072149;28;20199;-37
2022/08/04 00:51:39;;;;;;;1.38;1.20;;;16.40;53.00;;;;;;5072613;28;20226;-38
2022/08/04 00:54:18;;;;;;;2.70;1.42;;;16.40;52.90;;;;;;5072663;28;20250;-38
2022/08/04 00:57:17;;;;;;;2.63;1.70;;;16.40;52.90;;;;;;5072533;28;20194;-44
2022/08/04 01:00:05;;;;;;;5.78;1.45;;;16.40;52.90;;;;;;5063785;28;20191;-39
2022/08/04 01:02:49;;;;;;;2.15;1.27;;;16.40;52.90;;;;;;5072620;28;20260;-41
2022/08/04 01:05:27;;;;;;;3.75;1.58;;;16.50;53.00;;;;;;5072231;28;20225;-37
2022/08/04 01:08:11;;;;;;;3.03;1.38;;;16.50;53.00;;;;;;5071984;28;20206;-44
2022/08/04 01:10:54;;;;;;;2.50;1.50;;;16.40;52.90;;;;;;5072615;28;20195;-37
2022/08/04 01:13:53;;;;;;;2.42;1.40;;;16.50;52.90;;;;;;5071096;28;20210;-44
2022/08/04 01:16:28;;;;;;;3.53;1.52;;;16.50;53.00;;;;;;5069837;28;20186;-37
2022/08/04 01:19:03;;;;;;;2.45;1.55;;;16.50;52.90;;;;;;5070097;28;20697;-37
2022/08/04 01:22:02;;;;;;;2.85;1.40;;;16.50;52.90;;;;;;5072334;28;20190;-40
2022/08/04 01:25:01;;;;;;;3.55;1.52;;;16.60;52.90;;;;;;5071929;28;20233;-37
2022/08/04 01:27:51;;;;;;;2.08;1.20;;;16.60;52.90;;;;;;5072028;28;20241;-41
2022/08/04 01:30:25;;;;;;;2.35;1.15;;;16.60;52.90;;;;;;5071960;28;20190;-41
2022/08/04 01:33:02;;;;;;;3.70;1.38;;;16.60;52.90;;;;;;5071515;28;20227;-41
2022/08/04 01:35:37;;;;;;;3.42;1.42;;;16.60;52.90;;;;;;5071252;28;20573;-38
2022/08/04 01:38:30;;;;;;;3.28;1.80;;;16.70;52.90;;;;;;5071103;28;20194;-38
2022/08/04 01:41:04;;;;;;;6.00;1.50;;;16.70;52.80;;;;;;5067442;28;20194;-56
2022/08/04 01:43:41;;;;;;;2.75;1.60;;;16.70;52.70;;;;;;5051742;28;20199;-38
2022/08/04 01:46:17;;;;;;;3.25;1.27;;;16.70;52.60;;;;;;5055493;28;20194;-37
2022/08/04 01:48:49;;;;;;;2.65;1.20;;;16.70;52.60;;;;;;5069755;28;20665;-38
2022/08/04 01:51:21;;;;;;;3.88;1.38;;;16.70;52.50;;;;;;5065777;28;20187;-37
2022/08/04 01:53:52;;;;;;;2.60;1.20;;;16.80;53.20;;;;;;5071772;28;20202;-37
2022/08/04 01:56:25;;;;;;;4.32;1.48;;;16.80;52.50;;;;;;5075909;28;20681;-37
2022/08/04 01:59:01;;;;;;;4.38;1.40;;;16.80;52.40;;;;;;5070307;28;20191;-38
2022/08/04 02:01:38;;;;;;;4.25;1.70;;;16.80;52.20;;;;;;5054644;28;20205;-37
2022/08/04 02:04:09;;;;;;;3.13;1.40;;;16.90;52.10;;;;;;5051238;28;20215;-40
2022/08/04 02:06:48;;;;;;;4.18;1.38;;;16.90;52.00;;;;;;5057318;28;20191;-37
2022/08/04 02:09:25;;;;;;;4.43;1.38;;;16.90;51.90;;;;;;5070358;28;20198;-38
2022/08/04 02:12:04;;;;;;;2.63;1.20;;;16.90;51.70;;;;;;5070034;28;20214;-37
2022/08/04 02:14:46;;;;;;;4.30;1.38;;;16.90;51.70;;;;;;5069474;28;20272;-44
2022/08/04 02:17:27;;;;;;;3.28;1.15;;;16.90;51.50;;;;;;5067543;28;20195;-37
2022/08/04 02:20:08;;;;;;;1.85;1.08;;;17.00;51.50;;;;;;5061306;28;20671;-38
2022/08/04 02:22:48;;;;;;;4.32;1.30;;;17.00;51.40;;;;;;5064663;28;20187;-38
2022/08/04 02:25:25;;;;;;;3.55;1.05;;;17.00;51.30;;;;;;5070213;28;20215;-41
2022/08/04 02:28:13;;;;;;;2.33;1.30;;;17.00;51.30;;;;;;5069648;28;20195;-41
2022/08/04 02:30:51;;;;;;;2.95;1.25;;;17.00;51.20;;;;;;5070361;28;20191;-42
2022/08/04 02:33:31;;;;;;;3.60;0.98;;;17.10;51.20;;;;;;5069851;28;20227;-38
2022/08/04 02:36:05;;;;;;;2.83;1.13;;;17.10;51.10;;;;;;5070584;28;20202;-38
2022/08/04 02:38:57;;;;;;;3.33;0.95;;;17.10;51.20;;;;;;5050804;28;20196;-47
2022/08/04 02:41:29;;;;;;;1.77;0.80;;;17.10;51.20;;;;;;5053196;28;20207;-41
2022/08/04 02:44:00;;;;;;;2.58;1.00;;;17.20;51.10;;;;;;5070259;28;20217;-38
2022/08/04 02:46:32;;;;;;;2.33;0.93;;;17.20;51.10;;;;;;5069392;28;20206;-37
2022/08/04 02:49:06;;;;;;;1.95;0.93;;;17.20;51.10;;;;;;5070052;28;20190;-37
2022/08/04 02:51:37;;;;;;;2.50;1.20;;;17.20;51.10;;;;;;5070965;28;20191;-37
2022/08/04 02:54:10;;;;;;;3.10;1.00;;;17.30;51.10;;;;;;5070183;28;20223;-37
2022/08/04 02:56:41;;;;;;;2.75;0.95;;;17.30;51.00;;;;;;5070267;28;20194;-44
2022/08/04 02:59:13;;;;;;;3.47;1.17;;;17.30;51.00;;;;;;5067499;28;20187;-37
2022/08/04 03:01:44;;;;;;;2.40;0.95;;;17.30;51.00;;;;;;5074330;28;20690;-38
2022/08/04 03:04:45;;;;;;;3.67;1.10;;;17.40;51.00;;;;;;5073843;28;20222;-38
2022/08/04 03:07:58;;;;;;;2.55;1.23;;;17.40;51.00;;;;;;5082353;28;20649;-37
2022/08/04 03:11:07;;;;;;;2.20;1.00;;;17.50;51.10;;;;;;5050154;28;20202;-37
2022/08/04 03:14:22;;;;;;;2.03;1.00;;;17.40;51.00;;;;;;5055984;28;20710;-37
2022/08/04 03:17:21;;;;;;;2.55;1.10;;;17.50;51.00;;;;;;5074324;28;20190;-37
2022/08/04 03:20:29;;;;;;;3.58;1.00;;;17.50;51.00;;;;;;5053220;28;20212;-42
2022/08/04 03:23:21;;;;;;;1.60;1.00;;;17.50;51.00;;;;;;5070264;28;20209;-48
2022/08/04 03:26:13;;;;;;;2.17;1.02;;;17.60;51.00;;;;;;5073549;28;20222;-37
2022/08/04 03:29:23;;;;;;;2.50;0.85;;;17.60;51.00;;;;;;5073612;28;20201;-37
2022/08/04 03:32:33;;;;;;;3.15;0.82;;;17.60;51.00;;;;;;5057339;28;20590;-38
2022/08/04 03:35:29;;;;;;;2.20;1.10;;;17.60;51.00;;;;;;5073002;28;20682;-46
2022/08/04 03:38:30;;;;;;;1.38;0.80;;;17.70;51.00;;;;;;5068048;28;20200;-44
2022/08/04 03:41:28;;;;;;;2.55;0.80;;;17.70;51.00;;;;;;5054080;28;20195;-37
2022/08/04 03:44:26;;;;;;;2.33;0.70;;;17.70;50.90;;;;;;5059041;28;20206;-41
2022/08/04 03:47:24;;;;;;;2.70;1.00;;;17.70;51.00;;;;;;5077473;28;20191;-50
2022/08/04 03:50:31;;;;;;;1.50;0.90;;;17.80;51.00;;;;;;5093532;28;20251;-49
2022/08/04 03:53:30;;;;;;;1.60;0.75;;;17.70;51.00;;;;;;5053802;28;20223;-40
2022/08/04 03:56:28;;;;;;;2.22;0.82;;;17.80;51.00;;;;;;5055034;28;20279;-37
2022/08/04 03:59:21;;;;;;;1.05;0.68;;;17.80;51.00;;;;;;5071968;28;20222;-38
2022/08/04 04:02:18;;;;;;;1.30;0.70;;;17.80;51.00;;;;;;5074123;28;20206;-37
2022/08/04 04:05:15;;;;;;;1.67;0.73;;;17.90;51.00;;;;;;5071602;28;20601;-45
2022/08/04 04:08:18;;;;;;;1.98;0.98;;;17.80;50.90;;;;;;5063145;28;20559;-37
2022/08/04 04:11:16;;;;;;;1.15;0.70;;;17.90;50.90;;;;;;5071264;28;20190;-38
2022/08/04 04:14:14;;;;;;;1.92;0.70;;;17.90;50.90;;;;;;5077027;28;20222;-41
2022/08/04 04:17:17;;;;;;;2.45;0.85;;;17.90;50.90;;;;;;5072884;28;20199;-38
2022/08/04 04:20:15;;;;;;;1.15;0.60;;;17.90;50.80;;;;;;5072561;28;20201;-38
2022/08/04 04:23:11;;;;;;;1.90;0.70;;;17.90;50.90;;;;;;5072276;28;20191;-39
2022/08/04 04:25:59;;;;;;;2.17;0.80;;;17.90;50.90;;;;;;5072360;28;20215;-45
2022/08/04 04:29:01;;;;;;;2.15;0.90;;;17.90;50.90;;;;;;5067737;28;20194;-38
2022/08/04 04:31:44;;;;;;;1.40;0.88;;;18.00;50.90;;;;;;5042909;28;20191;-37
2022/08/04 04:34:32;;;;;;;2.53;0.73;;;17.90;50.90;;;;;;5064031;28;20230;-38
2022/08/04 04:37:21;;;;;;;2.63;0.60;;;17.90;50.80;;;;;;5073217;28;20198;-37
2022/08/04 04:40:05;;;;;;;0.93;0.60;;;18.00;50.90;;;;;;5072286;28;20267;-38
2022/08/04 04:42:50;;;;;;;1.27;0.60;;;18.00;50.90;;;;;;5072512;28;20269;-43
2022/08/04 04:45:32;;;;;;;1.95;0.90;;;17.90;50.80;;;;;;5072247;28;20214;-38
2022/08/04 04:48:10;;;;;;;3.03;0.90;;;18.00;50.20;;;;;;5072551;28;20202;-38
2022/08/04 04:51:05;;;;;;;2.90;1.00;;;18.00;49.80;;;;;;5068824;28;20206;-38
2022/08/04 04:53:57;;;;;;;2.88;1.25;;;18.10;49.40;;;;;;5072372;28;20230;-41
2022/08/04 04:56:37;;;;;;;3.28;1.17;;;18.00;49.50;;;;;;5071605;28;20210;-38
2022/08/04 04:59:16;;;;;;;2.08;0.80;;;18.10;49.60;;;;;;5072313;28;20194;-37
2022/08/04 05:02:19;;;;;;;3.33;0.80;;;18.10;49.60;;;;;;5071772;28;20203;-42
2022/08/04 05:05:28;;;;;;;2.85;0.80;;;18.10;49.60;;;;;;5060999;28;20218;-38
2022/08/04 05:08:28;;;;;;;1.90;0.90;;;18.10;49.60;;;;;;5054587;28;20191;-46
2022/08/04 05:11:16;;;;;;;2.55;0.88;;;18.10;49.70;;;;;;5071715;28;20648;-40
2022/08/04 05:13:49;;;;;;;1.75;0.98;;;18.10;49.90;;;;;;5065692;28;20229;-37
2022/08/04 05:16:27;;;;;;;1.80;0.77;;;18.10;49.90;;;;;;5071591;28;20195;-40
2022/08/04 05:19:05;;;;;;;2.05;1.00;;;18.00;50.00;;;;;;5067393;28;20187;-37
2022/08/04 05:21:46;;;;;;;1.23;0.70;;;18.00;50.00;;;;;;5071368;28;20194;-37
2022/08/04 05:24:20;;;;;;;1.38;0.90;;;18.00;49.90;;;;;;5070783;28;20219;-38
2022/08/04 05:26:57;;;;;;;1.45;0.90;;;18.10;50.10;;;;;;5071725;28;20206;-38
2022/08/04 05:29:32;;;;;;;1.17;0.90;;;18.00;50.00;;;;;;5057437;28;20211;-41
2022/08/04 05:32:10;;;;;;;1.65;0.85;;;18.00;50.10;;;;;;5051389;28;20210;-37
2022/08/04 05:34:45;;;;;;;2.30;0.90;;;18.00;50.10;;;;;;5051040;28;20241;-42
2022/08/04 05:37:22;;;;;;;1.88;0.80;;;18.00;50.10;;;;;;5052015;28;20222;-38
2022/08/04 05:39:58;;;;;;;1.95;0.68;;;18.00;50.20;;;;;;5071827;28;20190;-42
2022/08/04 05:42:29;;;;;;;1.38;0.70;;;18.00;50.20;;;;;;5065650;28;20190;-38
2022/08/04 05:45:01;;;;;;;1.73;1.15;;;18.00;50.20;;;;;;5091905;28;20218;-37
2022/08/04 05:47:35;;;;;;;2.47;0.88;;;18.00;50.20;;;;;;5091560;28;20190;-47
2022/08/04 05:50:07;;;;;;;2.90;0.80;;;18.00;50.20;;;;;;5081989;28;20198;-45
2022/08/04 05:52:39;;;;;;;1.35;0.82;;;18.00;50.20;;;;;;5070925;28;20249;-38
2022/08/04 05:55:13;;;;;;;1.38;0.80;;;17.90;50.20;;;;;;5071120;28;20683;-45
2022/08/04 05:57:47;;;;;;;1.98;0.90;;;18.00;50.30;;;;;;5073767;28;20689;-37
2022/08/04 06:00:19;;;;;;;1.73;0.80;;;18.00;50.30;;;;;;5075047;28;20274;-37
2022/08/04 06:02:53;;;;;;;1.02;0.70;;;18.00;50.30;;;;;;5071252;28;20223;-40
2022/08/04 06:05:26;;;;;;;0.98;0.70;;;17.90;50.20;;;;;;5071020;28;20211;-38
2022/08/04 06:07:56;;;;;;;1.17;0.60;;;18.00;50.30;;;;;;5071117;28;20191;-38
2022/08/04 06:10:29;;;;;;;1.55;1.00;;;18.00;50.30;;;;;;5071563;28;20191;-37
2022/08/04 06:13:03;;;;;;;1.92;0.88;;;17.90;50.40;;;;;;5070783;28;20215;-38
2022/08/04 06:15:37;;;;;;;1.50;0.88;;;17.90;50.30;;;;;;5070054;28;20213;-38
2022/08/04 06:18:12;;;;;;;1.23;0.77;;;17.90;50.40;;;;;;5070945;28;20202;-39
2022/08/04 06:20:45;;;;;;;1.30;0.85;;;17.90;50.40;;;;;;5070161;28;20202;-37
2022/08/04 06:23:18;;;;;;;1.20;0.70;;;17.90;50.40;;;;;;5069706;28;20199;-37
2022/08/04 06:25:52;;;;;;;1.13;0.85;;;17.90;50.50;;;;;;5069716;28;20214;-37
2022/08/04 06:28:24;;;;;;;1.13;0.68;;;17.90;50.50;;;;;;5068404;28;20194;-40
2022/08/04 06:31:01;;;;;;;1.77;0.90;;;17.80;50.50;;;;;;5070105;28;20588;-37
2022/08/04 06:33:37;;;;;;;1.13;0.65;;;17.90;50.50;;;;;;5070802;28;20226;-38
2022/08/04 06:36:11;;;;;;;0.95;0.65;;;17.90;50.50;;;;;;5070204;28;20194;-36
2022/08/04 06:38:43;;;;;;;3.95;0.93;;;17.80;50.50;;;;;;5071193;28;20191;-39
2022/08/04 06:41:14;;;;;;;1.75;0.88;;;17.80;50.50;;;;;;5070223;28;20580;-39
2022/08/04 06:43:45;;;;;;;0.77;0.65;;;17.80;50.50;;;;;;5070861;28;20643;-37
2022/08/04 06:46:17;;;;;;;1.20;0.63;;;17.80;50.50;;;;;;5070378;28;20584;-36
2022/08/04 06:48:51;;;;;;;2.58;0.80;;;17.80;50.60;;;;;;5070541;28;20191;-45
2022/08/04 06:51:23;;;;;;;1.35;0.70;;;17.80;50.60;;;;;;5069586;28;20209;-40
2022/08/04 06:53:54;;;;;;;0.95;0.65;;;17.80;50.60;;;;;;5070088;28;20729;-40
2022/08/04 06:56:26;;;;;;;1.40;0.80;;;17.80;50.60;;;;;;5070156;28;20581;-41
2022/08/04 06:58:57;;;;;;;1.25;0.80;;;17.70;50.60;;;;;;5075153;28;20194;-36
2022/08/04 07:01:30;;;;;;;0.52;0.50;;;17.70;50.60;;;;;;5070724;28;20221;-40
2022/08/04 07:04:03;;;;;;;1.08;0.77;;;17.70;50.70;;;;;;5070307;28;20210;-40
2022/08/04 07:06:35;;;;;;;1.73;0.82;;;17.70;50.60;;;;;;5070247;28;20224;-36
2022/08/04 07:09:07;;;;;;;1.17;0.60;;;17.70;50.70;;;;;;5069782;28;20206;-36
2022/08/04 07:11:38;;;;;;;1.02;0.65;;;17.80;50.80;;;;;;5069991;28;20213;-36
2022/08/04 07:14:09;;;;;;;1.48;0.70;;;17.70;50.70;;;;;;5069890;28;20297;-36
2022/08/04 07:16:41;;;;;;;1.05;0.63;;;17.70;50.70;;;;;;5070332;28;20207;-36
2022/08/04 07:19:14;;;;;;;0.90;0.70;;;17.70;50.70;;;;;;5070540;28;20191;-42
2022/08/04 07:21:44;;;;;;;0.70;0.52;;;17.70;50.80;;;;;;5069698;28;20202;-36
2022/08/04 07:24:17;;;;;;;0.68;0.50;;;17.70;50.90;;;;;;5079041;28;20214;-36
2022/08/04 07:26:52;;;;;;;0.60;0.50;;;17.70;50.80;;;;;;5082224;28;20209;-37
2022/08/04 07:29:23;;;;;;;0.90;0.50;;;17.70;50.90;;;;;;5070646;28;20712;-41
2022/08/04 07:31:55;;;;;;;1.20;0.77;;;17.70;50.90;;;;;;5070972;28;20217;-39
2022/08/04 07:34:28;;;;;;;1.63;0.80;;;17.70;50.80;;;;;;5066937;28;20225;-37
2022/08/04 07:37:01;;;;;;;2.20;0.70;;;17.70;50.90;;;;;;5062506;28;20207;-40
2022/08/04 07:39:32;;;;;;;1.95;0.60;;;17.70;50.90;;;;;;5070497;28;20194;-36
2022/08/04 07:42:04;;;;;;;1.23;0.88;;;17.70;50.90;;;;;;5070696;28;20308;-36
2022/08/04 07:44:35;;;;;;;1.70;0.50;;;17.70;50.90;;;;;;5070612;28;20241;-36
2022/08/04 07:47:09;;;;;;;2.33;0.70;;;17.70;50.90;;;;;;5073133;28;20199;-36
2022/08/04 07:49:42;;;;;;;1.45;0.65;;;17.70;50.90;;;;;;5073920;28;20299;-36
2022/08/04 07:52:14;;;;;;;1.70;0.80;;;17.60;50.90;;;;;;5074316;28;20201;-36
2022/08/04 07:54:45;;;;;;;1.25;0.70;;;17.60;51.00;;;;;;5073537;28;20230;-44
2022/08/04 07:57:17;;;;;;;1.65;0.75;;;17.60;51.00;;;;;;5074440;28;20198;-36
2022/08/04 07:59:48;;;;;;;0.65;0.65;;;17.60;51.00;;;;;;5074193;28;20194;-36
2022/08/04 08:02:20;;;;;;;1.33;0.70;;;17.60;51.00;;;;;;5074224;28;20549;-36
2022/08/04 08:04:53;;;;;;;1.15;0.60;;;17.60;51.00;;;;;;5073741;28;20211;-36
2022/08/04 08:07:24;;;;;;;0.50;0.50;;;17.60;51.00;;;;;;5073454;28;20195;-36
2022/08/04 08:09:55;;;;;;;1.55;0.70;;;17.60;51.00;;;;;;5073578;28;20803;-39
2022/08/04 08:12:26;;;;;;;1.52;0.80;;;17.60;51.00;;;;;;5073702;28;20203;-36
2022/08/04 08:14:57;;;;;;;0.90;0.70;;;17.60;51.10;;;;;;5074285;28;20234;-43
2022/08/04 08:17:28;;;;;;;1.30;0.80;;;17.60;51.10;;;;;;5073910;28;20578;-36
2022/08/04 08:20:00;;;;;;;1.52;0.70;;;17.50;51.00;;;;;;5073275;28;20199;-36
2022/08/04 08:22:32;;;;;;;0.80;0.50;;;17.60;51.10;;;;;;5073401;28;20201;-36
2022/08/04 08:25:03;;;;;;;1.25;0.60;;;17.50;51.10;;;;;;5072884;28;20218;-36
2022/08/04 08:27:34;;;;;;;1.55;0.70;;;17.50;51.20;;;;;;5073375;28;20214;-36
2022/08/04 08:30:05;;;;;;;2.15;0.70;;;17.50;51.30;;;;;;5073634;28;20194;-41
2022/08/04 08:32:39;;;;;;;1.52;0.90;;;17.50;51.30;;;;;;5068227;28;20198;-36
2022/08/04 08:35:12;;;;;;;1.90;0.80;;;17.50;51.30;;;;;;5072420;28;20222;-36
2022/08/04 08:37:51;;;;;;;1.27;0.68;;;17.60;51.40;;;;;;5083327;28;20195;-40
2022/08/04 08:40:31;;;;;;;1.15;0.70;;;17.50;51.30;;;;;;5073091;28;20194;-40
2022/08/04 08:43:40;;;;;;;1.63;0.75;;;17.60;51.40;;;;;;5073101;28;20218;-36
2022/08/04 08:46:37;;;;;;;1.52;0.75;;;17.50;51.30;;;;;;5072172;28;20253;-36
2022/08/04 08:49:47;;;;;;;1.30;0.68;;;17.50;51.40;;;;;;5072645;28;20581;-42
2022/08/04 08:52:34;;;;;;;1.90;0.70;;;17.50;51.40;;;;;;5059710;28;20197;-36
2022/08/04 08:55:19;;;;;;;1.50;0.80;;;17.40;51.40;;;;;;5072976;28;20233;-36
2022/08/04 08:58:03;;;;;;;1.08;0.75;;;17.50;51.50;;;;;;5069372;28;20195;-45
2022/08/04 09:00:49;;;;;;;1.55;0.70;;;17.40;51.50;;;;;;5072434;28;20199;-36
2022/08/04 09:03:55;;;;;;;0.93;0.68;;;17.50;51.50;;;;;;5072181;28;20190;-36
2022/08/04 09:06:44;;;;;;;0.70;0.50;;;17.50;51.50;;;;;;5070529;28;20194;-37
2022/08/04 09:09:43;;;;;;;0.45;0.40;;;17.40;51.50;;;;;;5062508;28;20195;-38
2022/08/04 09:12:23;;;;;;;0.75;0.60;;;17.50;51.50;;;;;;5072363;28;20190;-45
2022/08/04 09:15:05;;;;;;;1.33;0.70;;;17.40;51.40;;;;;;5072026;28;20230;-40
2022/08/04 09:17:43;;;;;;;1.15;0.65;;;17.50;51.50;;;;;;5071310;28;20218;-36
2022/08/04 09:20:23;;;;;;;1.73;0.80;;;17.40;51.50;;;;;;5071702;28;20282;-36
2022/08/04 09:22:56;;;;;;;0.57;0.50;;;17.40;51.50;;;;;;5072402;28;20240;-36
2022/08/04 09:25:32;;;;;;;1.17;0.85;;;17.40;51.50;;;;;;5071567;28;20222;-50
2022/08/04 09:28:08;;;;;;;1.25;0.60;;;17.40;51.60;;;;;;5068424;28;20198;-36
2022/08/04 09:30:46;;;;;;;1.05;0.52;;;17.40;51.60;;;;;;5071370;28;20201;-36
2022/08/04 09:33:25;;;;;;;1.33;0.70;;;17.40;51.60;;;;;;5072109;28;20191;-42
2022/08/04 09:36:02;;;;;;;2.05;0.70;;;17.40;51.50;;;;;;5071079;28;20222;-36
2022/08/04 09:38:41;;;;;;;0.88;0.60;;;17.40;51.50;;;;;;5071843;28;20197;-36
2022/08/04 09:41:25;;;;;;;1.65;0.75;;;17.40;51.50;;;;;;5051049;28;20199;-49
2022/08/04 09:44:17;;;;;;;1.55;0.90;;;17.30;51.50;;;;;;5069388;28;20672;-36
2022/08/04 09:46:53;;;;;;;0.82;0.50;;;17.40;51.60;;;;;;5071349;28;20744;-45
2022/08/04 09:49:31;;;;;;;0.98;0.60;;;17.40;51.50;;;;;;5051549;28;20195;-36
2022/08/04 09:52:13;;;;;;;1.52;0.80;;;17.40;51.60;;;;;;5052921;28;20655;-36
2022/08/04 09:54:51;;;;;;;0.70;0.60;;;17.30;51.50;;;;;;5070776;28;20233;-36
2022/08/04 09:57:38;;;;;;;0.70;0.50;;;17.30;51.50;;;;;;5070879;28;20225;-40
2022/08/04 10:00:10;;;;;;;1.02;0.70;;;17.30;51.60;;;;;;5071096;28;20194;-36
2022/08/04 10:02:45;;;;;;;1.08;0.70;;;17.30;51.60;;;;;;5071258;28;20237;-36
2022/08/04 10:05:21;;;;;;;1.15;0.70;;;17.30;51.60;;;;;;5070908;28;20214;-36
2022/08/04 10:08:14;;;;;;;1.25;0.60;;;17.30;51.60;;;;;;5071955;28;20559;-36
2022/08/04 10:10:54;;;;;;;1.40;0.63;;;17.30;51.60;;;;;;5071318;28;20698;-40
2022/08/04 10:13:40;;;;;;;1.02;0.60;;;17.30;51.50;;;;;;5071514;28;20872;-36
2022/08/04 10:16:25;;;;;;;1.17;0.60;;;17.30;51.50;;;;;;5070964;28;20191;-39
2022/08/04 10:19:06;;;;;;;1.73;0.70;;;17.30;51.50;;;;;;5070845;28;20234;-36
2022/08/04 10:21:47;;;;;;;0.90;0.70;;;17.20;51.50;;;;;;5070238;28;20191;-37
2022/08/04 10:24:37;;;;;;;1.63;0.65;;;17.30;51.60;;;;;;5089045;28;20209;-38
2022/08/04 10:27:12;;;;;;;0.55;0.55;;;17.20;51.50;;;;;;5072665;28;20568;-37
2022/08/04 10:29:48;;;;;;;1.02;0.55;;;17.20;51.60;;;;;;5071003;28;20198;-39
2022/08/04 10:32:22;;;;;;;0.95;0.63;;;17.20;51.60;;;;;;5070681;28;20210;-38
2022/08/04 10:35:08;;;;;;;1.05;0.68;;;17.20;51.60;;;;;;5071217;28;20237;-43
2022/08/04 10:37:45;;;;;;;1.23;0.73;;;17.20;51.60;;;;;;5070478;28;20710;-48
2022/08/04 10:40:44;;;;;;;1.48;0.60;;;17.20;51.60;;;;;;5070454;28;20199;-50
2022/08/04 10:43:30;;;;;;;1.48;0.73;;;17.20;51.60;;;;;;5070678;28;20203;-37
2022/08/04 10:46:07;;;;;;;2.13;0.70;;;17.20;51.50;;;;;;5071159;28;20610;-36
2022/08/04 10:48:44;;;;;;;1.00;0.70;;;17.20;51.50;;;;;;5070413;28;20199;-36
2022/08/04 10:51:27;;;;;;;2.03;0.80;;;17.20;51.50;;;;;;5069509;28;20202;-36
2022/08/04 10:54:03;;;;;;;3.80;1.38;;;17.10;51.50;;;;;;5069456;28;20713;-39
2022/08/04 10:56:40;;;;;;;1.83;0.90;;;17.20;51.50;;;;;;5069338;28;20198;-37
2022/08/04 10:59:16;;;;;;;2.78;1.05;;;17.10;51.50;;;;;;5069619;28;20203;-36
2022/08/04 11:01:53;;;;;;;2.63;1.33;;;17.10;51.50;;;;;;5069707;28;20198;-37
2022/08/04 11:04:32;;;;;;;2.15;0.82;;;17.10;51.50;;;;;;5069685;28;20222;-42
2022/08/04 11:07:04;;;;;;;3.30;1.42;;;17.10;51.50;;;;;;5069429;28;20666;-36
2022/08/04 11:09:35;;;;;;;3.38;1.30;;;17.10;51.50;;;;;;5069315;28;20672;-37
2022/08/04 11:12:12;;;;;;;2.97;1.17;;;17.10;51.50;;;;;;5069513;28;20222;-36
2022/08/04 11:14:51;;;;;;;4.43;1.33;;;17.10;51.50;;;;;;5069118;28;20234;-37
2022/08/04 11:17:29;;;;;;;1.30;0.90;;;17.10;51.50;;;;;;5070209;28;20190;-36
2022/08/04 11:20:12;;;;;;;3.55;1.45;;;17.10;51.50;;;;;;5069521;28;20202;-37
2022/08/04 11:22:49;;;;;;;2.63;1.23;;;17.10;51.60;;;;;;5073564;28;20667;-36
2022/08/04 11:25:23;;;;;;;6.25;1.48;;;17.10;51.60;;;;;;5072923;28;20222;-40
2022/08/04 11:28:04;;;;;;;3.75;1.27;;;17.10;51.60;;;;;;5072960;28;20210;-36
2022/08/04 11:30:44;;;;;;;4.07;1.60;;;17.10;51.60;;;;;;5072690;28;20195;-37
2022/08/04 11:33:31;;;;;;;4.50;2.10;;;17.00;51.60;;;;;;5073170;28;20202;-36
2022/08/04 11:36:20;;;;;;;4.38;1.50;;;17.00;51.60;;;;;;5072925;28;20230;-46
2022/08/04 11:39:01;;;;;;;3.05;1.50;;;17.00;51.60;;;;;;5073350;28;20650;-40
2022/08/04 11:41:42;;;;;;;3.38;1.40;;;17.00;51.60;;;;;;5072943;28;20198;-40
2022/08/04 11:44:24;;;;;;;3.40;1.40;;;17.10;51.60;;;;;;5072713;28;20245;-49
2022/08/04 11:46:58;;;;;;;4.05;1.70;;;17.00;51.60;;;;;;5072835;28;20654;-42
2022/08/04 11:49:37;;;;;;;3.28;1.75;;;17.00;51.60;;;;;;5072983;28;20194;-41
2022/08/04 11:52:10;;;;;;;3.65;1.63;;;17.00;51.60;;;;;;5072536;28;20191;-44
2022/08/04 11:54:41;;;;;;;4.40;1.40;;;17.00;51.60;;;;;;5072058;28;20234;-36
2022/08/04 11:57:12;;;;;;;3.63;1.70;;;17.00;51.70;;;;;;5072228;28;20203;-37
2022/08/04 11:59:44;;;;;;;4.90;1.80;;;17.00;51.70;;;;;;5072110;28;20198;-36
2022/08/04 12:02:43;;;;;;;3.90;1.60;;;17.00;51.70;;;;;;5072166;28;20674;-36
2022/08/04 12:05:18;;;;;;;2.85;1.33;;;17.00;51.70;;;;;;5045594;28;20268;-39
2022/08/04 12:08:04;;;;;;;2.47;1.30;;;17.00;51.70;;;;;;5072452;28;20198;-37
2022/08/04 12:10:47;;;;;;;5.13;1.40;;;17.00;51.70;;;;;;5072245;28;20201;-39
2022/08/04 12:13:29;;;;;;;6.60;1.70;;;17.00;51.70;;;;;;5072253;28;20194;-36
2022/08/04 12:16:07;;;;;;;3.20;1.30;;;17.00;51.60;;;;;;5072325;28;20230;-36
2022/08/04 12:18:41;;;;;;;3.15;1.35;;;17.00;51.70;;;;;;5071990;28;20194;-39
2022/08/04 12:21:17;;;;;;;2.88;1.77;;;17.00;51.60;;;;;;5071989;28;20769;-38
2022/08/04 12:23:52;;;;;;;5.72;1.70;;;17.00;51.70;;;;;;5071374;28;20187;-40
2022/08/04 12:26:29;;;;;;;3.00;1.75;;;17.00;51.70;;;;;;5071922;28;20194;-36
2022/08/04 12:29:03;;;;;;;5.07;2.45;;;16.90;51.70;;;;;;5071671;28;20199;-36
2022/08/04 12:31:41;;;;;;;3.60;1.70;;;16.90;51.60;;;;;;5069953;28;20714;-36
2022/08/04 12:34:16;;;;;;;2.92;1.73;;;16.90;51.70;;;;;;5071901;28;20221;-40
2022/08/04 12:36:55;;;;;;;3.60;1.60;;;16.90;51.60;;;;;;5071579;28;20226;-36
2022/08/04 12:39:27;;;;;;;4.20;1.60;;;16.90;51.60;;;;;;5071980;28;20198;-36
2022/08/04 12:42:04;;;;;;;4.20;1.60;;;16.90;51.60;;;;;;5071922;28;20669;-42
2022/08/04 12:44:37;;;;;;;3.05;1.30;;;16.90;51.50;;;;;;5077618;28;20213;-37
2022/08/04 12:47:10;;;;;;;5.38;1.77;;;16.90;51.50;;;;;;5091753;28;20797;-36
2022/08/04 12:49:46;;;;;;;3.72;1.40;;;16.90;51.50;;;;;;5091662;28;20598;-36
2022/08/04 12:52:21;;;;;;;4.95;2.13;;;16.90;51.50;;;;;;5091395;28;20193;-36
2022/08/04 12:54:56;;;;;;;4.18;1.42;;;16.90;51.60;;;;;;5091305;28;20228;-36
2022/08/04 12:57:28;;;;;;;2.63;1.48;;;16.90;51.50;;;;;;5077399;28;20195;-36
2022/08/04 12:59:59;;;;;;;3.00;1.30;;;16.90;51.50;;;;;;5071253;28;20202;-39
2022/08/04 13:02:32;;;;;;;4.10;1.27;;;16.90;51.50;;;;;;5071849;28;20202;-36
2022/08/04 13:05:06;;;;;;;3.95;1.80;;;16.90;51.50;;;;;;5071372;28;20222;-36
2022/08/04 13:07:45;;;;;;;2.72;1.40;;;16.80;51.50;;;;;;5071408;28;20197;-36
2022/08/04 13:10:16;;;;;;;3.08;1.30;;;16.90;51.50;;;;;;5071305;28;20198;-37
2022/08/04 13:12:58;;;;;;;3.72;1.73;;;16.90;51.50;;;;;;5071114;28;20195;-36
2022/08/04 13:15:32;;;;;;;4.97;1.45;;;16.90;51.50;;;;;;5070928;28;20701;-37
2022/08/04 13:18:07;;;;;;;2.28;1.20;;;16.90;51.40;;;;;;5071337;28;20562;-36
2022/08/04 13:20:39;;;;;;;4.57;1.80;;;16.90;51.40;;;;;;5071114;28;20642;-35
2022/08/04 13:23:15;;;;;;;4.13;1.42;;;16.80;51.30;;;;;;5071127;28;20204;-37
2022/08/04 13:25:47;;;;;;;3.60;1.73;;;16.80;51.30;;;;;;5070975;28;20215;-36
2022/08/04 13:28:21;;;;;;;3.88;1.40;;;16.80;51.40;;;;;;5071367;28;20195;-40
2022/08/04 13:30:58;;;;;;;4.10;1.63;;;16.80;51.40;;;;;;5071423;28;20195;-36
2022/08/04 13:33:33;;;;;;;3.25;1.52;;;16.80;51.40;;;;;;5070630;28;20198;-41
2022/08/04 13:36:05;;;;;;;3.10;1.35;;;16.80;51.50;;;;;;5070635;28;20693;-36
2022/08/04 13:38:41;;;;;;;3.17;1.40;;;16.80;51.40;;;;;;5070940;28;20199;-36
2022/08/04 13:41:12;;;;;;;3.30;1.50;;;16.80;51.50;;;;;;5071058;28;20201;-37
2022/08/04 13:43:45;;;;;;;3.50;1.40;;;16.80;51.40;;;;;;5070099;28;20201;-36
2022/08/04 13:46:21;;;;;;;3.20;1.38;;;16.80;51.40;;;;;;5070591;28;20195;-40
2022/08/04 13:48:52;;;;;;;2.03;1.70;;;16.80;51.40;;;;;;5070379;28;20202;-43
2022/08/04 13:51:25;;;;;;;2.28;1.20;;;16.80;51.50;;;;;;5070118;28;20202;-36
2022/08/04 13:54:01;;;;;;;3.75;1.40;;;16.80;51.40;;;;;;5070346;28;20202;-37